createdAt,value
2019-03-12T00:02:09.838Z,81.09
2019-03-12T00:04:42.734Z,80.17
2019-03-12T00:07:12.868Z,79.51
2019-03-12T00:09:43.011Z,79.02
2019-03-12T00:12:14.694Z,78.74
2019-03-12T00:14:44.984Z,78.47
2019-03-12T00:17:16.790Z,78.90
2019-03-12T00:19:46.928Z,78.47
2019-03-12T00:22:17.287Z,78.44
2019-03-12T00:24:47.422Z,78.30
2019-03-12T00:27:23.092Z,79.10
2019-03-12T00:29:53.255Z,78.48
2019-03-12T00:32:23.625Z,78.43
2019-03-12T00:34:53.691Z,78.35
2019-03-12T00:37:23.866Z,78.62
2019-03-12T00:39:54.002Z,78.02
2019-03-12T00:42:24.185Z,77.53
2019-03-12T00:44:54.305Z,77.82
2019-03-12T00:47:25.032Z,77.56
2019-03-12T00:49:55.162Z,77.71
2019-03-12T00:52:27.936Z,77.28
2019-03-12T00:55:01.103Z,77.26
2019-03-12T00:57:33.989Z,77.16
2019-03-12T01:00:08.065Z,77.18
2019-03-12T01:02:41.724Z,77.36
2019-03-12T01:05:12.252Z,77.07
2019-03-12T01:07:44.527Z,77.37
2019-03-12T01:10:15.334Z,77.87
2019-03-12T01:12:46.530Z,78.13
2019-03-12T01:15:17.058Z,77.82
2019-03-12T01:17:47.276Z,77.94
2019-03-12T01:20:18.994Z,78.05
2019-03-12T01:22:49.026Z,78.05
2019-03-12T01:25:19.751Z,78.14
2019-03-12T01:27:49.727Z,78.19
2019-03-12T01:30:19.982Z,78.59
2019-03-12T01:32:50.698Z,78.80
2019-03-12T01:37:48.589Z,78.41
2019-03-12T01:40:18.478Z,78.62
2019-03-12T01:42:48.500Z,78.78
2019-03-12T01:45:18.437Z,78.94
2019-03-12T01:47:48.436Z,78.60
2019-03-12T01:50:19.305Z,79.41
2019-03-12T01:52:49.751Z,79.04
2019-03-12T01:55:19.718Z,78.97
2019-03-12T01:57:49.746Z,78.82
2019-03-12T02:00:20.272Z,78.69
2019-03-12T02:02:50.709Z,78.61
2019-03-12T02:05:21.272Z,78.54
2019-03-12T02:07:51.265Z,79.76
2019-03-12T02:10:21.726Z,79.27
2019-03-12T02:12:52.069Z,79.82
2019-03-12T02:15:22.204Z,79.82
2019-03-12T02:17:52.954Z,80.25
2019-03-12T02:20:23.998Z,80.47
2019-03-12T02:22:54.206Z,81.03
2019-03-12T02:25:24.860Z,82.01
2019-03-12T02:27:55.335Z,82.45
2019-03-12T02:30:25.666Z,82.73
2019-03-12T02:32:57.758Z,82.86
2019-03-12T02:35:33.219Z,83.03
2019-03-12T02:38:04.264Z,83.30
2019-03-12T02:40:38.945Z,83.79
2019-03-12T02:43:09.085Z,84.07
2019-03-12T02:45:39.322Z,84.25
2019-03-12T02:48:09.360Z,84.13
2019-03-12T02:50:40.709Z,83.89
2019-03-12T02:53:10.601Z,83.73
2019-03-12T02:55:40.753Z,83.22
2019-03-12T02:58:10.705Z,83.56
2019-03-12T03:00:40.834Z,83.50
2019-03-12T03:03:11.067Z,83.30
2019-03-12T03:06:03.134Z,82.93
2019-03-12T03:08:34.366Z,82.86
2019-03-12T03:11:05.552Z,82.62
2019-03-12T03:13:35.858Z,83.09
2019-03-12T03:16:05.969Z,83.95
2019-03-12T03:18:37.084Z,84.54
2019-03-12T03:21:08.714Z,84.49
2019-03-12T03:23:38.626Z,85.06
2019-03-12T03:26:08.562Z,85.48
2019-03-12T03:28:42.182Z,85.19
2019-03-12T03:31:13.145Z,84.54
2019-03-12T03:33:43.466Z,83.95
2019-03-12T03:36:13.656Z,83.69
2019-03-12T03:38:43.726Z,82.45
2019-03-12T03:41:13.922Z,82.24
2019-03-12T03:43:44.734Z,82.15
2019-03-12T03:46:15.901Z,82.63
2019-03-12T03:48:46.125Z,82.27
2019-03-12T03:51:15.955Z,82.15
2019-03-12T03:53:46.282Z,82.44
2019-03-12T03:56:17.020Z,82.22
2019-03-12T03:58:47.570Z,82.13
2019-03-12T04:01:17.949Z,82.36
2019-03-12T04:03:48.473Z,81.81
2019-03-12T04:06:18.474Z,81.84
2019-03-12T04:08:48.514Z,81.89
2019-03-12T04:11:18.561Z,82.42
2019-03-12T04:13:48.451Z,82.71
2019-03-12T04:16:19.365Z,83.11
2019-03-12T04:18:49.700Z,83.11
2019-03-12T04:21:19.897Z,83.29
2019-03-12T04:23:49.799Z,83.62
2019-03-12T04:26:20.112Z,84.24
2019-03-12T04:28:50.266Z,84.35
2019-03-12T04:31:20.339Z,84.13
2019-03-12T04:34:19.639Z,84.30
2019-03-12T04:36:50.815Z,84.01
2019-03-12T04:39:21.075Z,83.97
2019-03-12T04:41:51.330Z,84.87
2019-03-12T04:44:21.208Z,85.59
2019-03-12T04:46:51.152Z,85.73
2019-03-12T04:49:21.016Z,85.97
2019-03-12T04:51:50.963Z,86.63
2019-03-12T04:54:20.833Z,86.49
2019-03-12T04:56:50.833Z,86.77
2019-03-12T04:59:21.205Z,86.66
2019-03-12T05:01:51.242Z,86.36
2019-03-12T05:04:21.091Z,85.82
2019-03-12T05:06:51.091Z,85.07
2019-03-12T05:09:21.104Z,84.97
2019-03-12T05:11:51.441Z,84.76
2019-03-12T05:14:26.208Z,85.10
2019-03-12T05:16:59.388Z,85.06
2019-03-12T05:19:30.534Z,85.10
2019-03-12T05:22:01.111Z,85.23
2019-03-12T05:24:33.228Z,85.49
2019-03-12T05:27:03.550Z,85.59
2019-03-12T05:29:34.000Z,86.10
2019-03-12T05:32:04.194Z,86.22
2019-03-12T05:34:35.338Z,85.96
2019-03-12T05:37:05.780Z,85.89
2019-03-12T05:39:36.690Z,85.93
2019-03-12T05:42:07.453Z,85.94
2019-03-12T05:44:37.920Z,85.37
2019-03-12T05:47:08.459Z,85.94
2019-03-12T05:49:39.012Z,86.03
2019-03-12T05:52:09.277Z,85.84
2019-03-12T05:54:39.899Z,86.41
2019-03-12T05:57:10.029Z,86.39
2019-03-12T05:59:40.343Z,86.47
2019-03-12T06:02:10.805Z,86.18
2019-03-12T06:04:41.071Z,85.82
2019-03-12T06:07:11.971Z,85.59
2019-03-12T06:09:42.442Z,84.96
2019-03-12T06:12:12.602Z,84.60
2019-03-12T06:14:42.824Z,83.87
2019-03-12T06:17:13.496Z,83.37
2019-03-12T06:19:43.942Z,83.32
2019-03-12T06:22:14.383Z,83.08
2019-03-12T06:24:44.573Z,83.25
2019-03-12T06:27:17.967Z,82.71
2019-03-12T06:29:47.174Z,81.89
2019-03-12T06:32:36.455Z,81.20
2019-03-12T06:35:26.068Z,81.04
2019-03-12T06:38:08.059Z,79.94
2019-03-12T06:40:57.157Z,80.11
2019-03-12T06:43:43.646Z,79.50
2019-03-12T06:46:25.298Z,79.84
2019-03-12T06:49:08.638Z,80.39
2019-03-12T06:51:45.354Z,80.20
2019-03-12T06:54:40.920Z,79.50
2019-03-12T06:57:21.943Z,79.28
2019-03-12T07:00:05.445Z,78.87
2019-03-12T07:03:12.904Z,78.04
2019-03-12T07:06:02.206Z,77.50
2019-03-12T07:08:44.072Z,77.10
2019-03-12T07:11:32.316Z,77.25
2019-03-12T07:14:08.707Z,77.29
2019-03-12T07:17:04.002Z,76.89
2019-03-12T07:19:57.321Z,76.78
2019-03-12T07:22:36.968Z,76.63
2019-03-12T07:25:20.416Z,76.88
2019-03-12T07:28:09.429Z,76.39
2019-03-12T07:30:56.340Z,76.05
2019-03-12T07:33:54.506Z,75.52
2019-03-12T07:36:45.125Z,75.10
2019-03-12T07:39:43.198Z,75.63
2019-03-12T07:42:34.996Z,74.90
2019-03-12T07:45:12.205Z,73.47
2019-03-12T07:48:02.661Z,72.51
2019-03-12T07:50:44.253Z,71.56
2019-03-12T07:53:33.510Z,72.56
2019-03-12T07:56:21.130Z,71.32
2019-03-12T07:59:10.438Z,71.45
2019-03-12T08:02:02.679Z,70.20
2019-03-12T08:05:01.024Z,69.83
2019-03-12T08:07:49.114Z,69.34
2019-03-12T08:10:41.258Z,68.98
2019-03-12T08:13:20.957Z,69.10
2019-03-12T08:16:10.626Z,69.52
2019-03-12T08:19:02.642Z,70.35
2019-03-12T08:21:51.772Z,69.93
2019-03-12T08:24:42.449Z,69.22
2019-03-12T08:27:45.154Z,70.54
2019-03-12T08:30:47.286Z,69.33
2019-03-12T08:33:49.577Z,68.92
2019-03-12T08:36:28.540Z,67.75
2019-03-12T08:39:13.178Z,67.43
2019-03-12T08:42:09.298Z,67.20
2019-03-12T08:45:05.032Z,66.31
2019-03-12T08:47:54.842Z,66.18
2019-03-12T08:50:50.541Z,65.98
2019-03-12T08:53:28.844Z,64.73
2019-03-12T08:56:07.410Z,65.27
2019-03-12T08:58:59.998Z,64.06
2019-03-12T09:01:55.642Z,63.96
2019-03-12T09:04:51.822Z,64.40
2019-03-12T09:07:42.291Z,64.36
2019-03-12T09:10:32.097Z,64.31
2019-03-12T09:13:08.056Z,63.03
2019-03-12T09:15:55.982Z,63.10
2019-03-12T09:18:43.534Z,62.94
2019-03-12T09:21:37.089Z,62.21
2019-03-12T09:24:16.921Z,61.77
2019-03-12T09:26:54.194Z,61.53
2019-03-12T09:29:36.820Z,60.05
2019-03-12T09:32:26.219Z,61.70
2019-03-12T09:35:18.074Z,60.91
2019-03-12T09:38:05.848Z,61.35
2019-03-12T09:40:53.624Z,59.91
2019-03-12T09:43:39.759Z,60.10
2019-03-12T09:46:24.125Z,59.50
2019-03-12T09:49:12.277Z,58.32
2019-03-12T09:51:51.730Z,58.37
2019-03-12T09:54:29.692Z,57.10
2019-03-12T09:57:21.846Z,57.39
2019-03-12T10:00:15.609Z,56.15
2019-03-12T10:02:55.855Z,56.15
2019-03-12T10:05:42.803Z,56.94
2019-03-12T10:08:34.574Z,57.77
2019-03-12T10:11:29.884Z,56.95
2019-03-12T10:14:17.324Z,55.35
2019-03-12T10:17:12.418Z,54.86
2019-03-12T10:20:01.958Z,54.86
2019-03-12T10:22:59.995Z,55.28
2019-03-12T10:25:44.561Z,55.69
2019-03-12T10:28:26.176Z,55.69
2019-03-12T10:31:21.145Z,56.00
2019-03-12T10:34:29.600Z,55.77
2019-03-12T10:37:19.797Z,55.66
2019-03-12T10:40:12.067Z,55.66
2019-03-12T10:43:27.735Z,56.44
2019-03-12T10:46:23.192Z,55.87
2019-03-12T10:48:53.448Z,53.48
2019-03-12T10:51:27.808Z,53.48
2019-03-12T10:54:00.666Z,53.35
2019-03-12T10:56:30.905Z,53.85
2019-03-12T10:59:01.486Z,54.14
2019-03-12T11:01:31.782Z,54.14
2019-03-12T11:04:03.003Z,52.91
2019-03-12T11:06:33.375Z,52.23
2019-03-12T11:09:05.451Z,52.80
2019-03-12T11:11:36.042Z,51.23
2019-03-12T11:14:08.610Z,51.15
2019-03-12T11:16:38.877Z,51.15
2019-03-12T11:19:09.234Z,50.61
2019-03-12T11:21:39.851Z,50.63
2019-03-12T11:24:09.957Z,50.08
2019-03-12T11:26:40.360Z,49.75
2019-03-12T11:29:10.542Z,50.33
2019-03-12T11:31:40.908Z,50.91
2019-03-12T11:34:11.253Z,50.45
2019-03-12T11:36:41.578Z,49.82
2019-03-12T11:39:11.868Z,48.92
2019-03-12T11:41:42.158Z,48.98
2019-03-12T11:44:12.455Z,48.99
2019-03-12T11:46:45.528Z,48.95
2019-03-12T11:49:15.156Z,48.03
2019-03-12T11:51:45.408Z,47.94
2019-03-12T11:54:15.760Z,46.41
2019-03-12T11:56:46.163Z,46.18
2019-03-12T11:59:16.699Z,47.44
2019-03-12T12:01:47.063Z,47.19
2019-03-12T12:04:17.749Z,46.00
2019-03-12T12:06:48.082Z,46.46
2019-03-12T12:09:18.343Z,46.05
2019-03-12T12:11:48.626Z,44.55
2019-03-12T12:14:19.134Z,45.74
2019-03-12T12:16:54.014Z,45.13
2019-03-12T12:19:23.794Z,44.01
2019-03-12T12:21:55.513Z,44.56
2019-03-12T12:24:26.748Z,43.77
2019-03-12T12:26:58.214Z,44.24
2019-03-12T12:29:28.384Z,44.17
2019-03-12T12:31:58.727Z,44.85
2019-03-12T12:34:32.200Z,45.26
2019-03-12T12:37:02.589Z,44.68
2019-03-12T12:39:32.936Z,45.57
2019-03-12T12:42:03.305Z,44.67
2019-03-12T12:44:33.546Z,44.95
2019-03-12T12:47:03.952Z,45.54
2019-03-12T12:49:34.361Z,45.90
2019-03-12T12:52:04.638Z,46.74
2019-03-12T12:54:35.747Z,46.46
2019-03-12T12:57:06.640Z,46.50
2019-03-12T12:59:37.884Z,46.16
2019-03-12T13:02:09.590Z,45.32
2019-03-12T13:04:39.949Z,44.94
2019-03-12T13:07:10.456Z,45.49
2019-03-12T13:09:41.055Z,44.74
2019-03-12T13:12:11.388Z,44.60
2019-03-12T13:14:41.963Z,45.19
2019-03-12T13:17:12.583Z,45.90
2019-03-12T13:19:43.128Z,45.58
2019-03-12T13:22:13.602Z,45.84
2019-03-12T13:24:44.000Z,45.25
2019-03-12T13:27:15.010Z,44.06
2019-03-12T13:29:45.282Z,43.97
2019-03-12T13:32:15.819Z,45.18
2019-03-12T13:34:46.835Z,45.42
2019-03-12T13:37:17.175Z,46.23
2019-03-12T13:39:48.272Z,45.94
2019-03-12T13:42:20.069Z,45.09
2019-03-12T13:44:50.848Z,45.33
2019-03-12T13:47:21.676Z,46.40
2019-03-12T13:49:52.649Z,45.93
2019-03-12T13:52:22.933Z,46.16
2019-03-12T13:54:53.674Z,45.47
2019-03-12T13:57:24.218Z,45.87
2019-03-12T13:59:54.934Z,44.91
2019-03-12T14:02:25.509Z,45.23
2019-03-12T14:04:58.672Z,46.67
2019-03-12T14:07:29.041Z,46.74
2019-03-12T14:09:59.842Z,47.53
2019-03-12T14:12:32.145Z,47.08
2019-03-12T14:15:03.086Z,46.95
2019-03-12T14:17:33.467Z,46.98
2019-03-12T14:20:39.799Z,45.93
2019-03-12T14:23:10.444Z,45.72
2019-03-12T14:25:40.731Z,45.40
2019-03-12T14:28:12.421Z,44.79
2019-03-12T14:30:42.874Z,43.81
2019-03-12T14:33:13.676Z,44.44
2019-03-12T14:35:51.606Z,44.41
2019-03-12T14:38:17.149Z,45.37
2019-03-12T14:40:48.206Z,45.17
2019-03-12T14:43:18.781Z,45.37
2019-03-12T14:45:52.124Z,44.99
2019-03-12T14:48:43.230Z,44.96
2019-03-12T14:51:40.287Z,44.51
2019-03-12T14:54:11.062Z,44.95
2019-03-12T14:56:42.859Z,44.97
2019-03-12T14:59:16.279Z,44.83
2019-03-12T15:01:47.456Z,45.31
2019-03-12T15:04:18.796Z,45.35
2019-03-12T15:06:50.935Z,45.43
2019-03-12T15:09:21.840Z,46.12
2019-03-12T15:14:23.970Z,45.83
2019-03-12T15:16:55.095Z,45.59
2019-03-12T15:19:25.705Z,45.95
2019-03-12T15:21:56.184Z,46.22
2019-03-12T15:24:27.805Z,46.08
2019-03-12T15:26:58.247Z,46.35
2019-03-12T15:29:28.777Z,45.89
2019-03-12T15:32:04.475Z,45.72
2019-03-12T15:34:32.541Z,45.33
2019-03-12T15:37:03.683Z,45.68
2019-03-12T15:39:35.590Z,45.82
2019-03-12T15:42:08.566Z,45.79
2019-03-12T15:44:39.460Z,45.99
2019-03-12T15:47:09.974Z,45.72
2019-03-12T15:49:42.794Z,46.00
2019-03-12T15:52:13.778Z,46.44
2019-03-12T15:54:44.560Z,46.01
2019-03-12T15:57:15.059Z,46.32
2019-03-12T15:59:45.392Z,46.05
2019-03-12T16:02:16.146Z,46.34
2019-03-12T16:04:46.479Z,45.94
2019-03-12T16:07:17.531Z,46.00
2019-03-12T16:09:48.225Z,45.95
2019-03-12T16:12:18.895Z,45.97
2019-03-12T16:14:49.342Z,45.73
2019-03-12T16:17:19.724Z,45.83
2019-03-12T16:19:57.034Z,46.00
2019-03-12T16:22:28.423Z,45.97
2019-03-12T16:24:59.881Z,45.74
2019-03-12T16:27:30.653Z,45.60
2019-03-12T16:30:00.989Z,45.55
2019-03-12T16:32:35.130Z,45.56
2019-03-12T16:35:04.627Z,45.83
2019-03-12T16:37:35.228Z,45.07
2019-03-12T16:40:06.228Z,44.89
2019-03-12T16:42:36.921Z,44.50
2019-03-12T16:45:08.151Z,45.33
2019-03-12T16:47:38.884Z,45.35
2019-03-12T16:50:09.411Z,45.23
2019-03-12T16:52:39.838Z,44.77
2019-03-12T16:55:10.254Z,45.14
2019-03-12T16:57:40.711Z,45.24
2019-03-12T17:00:12.290Z,45.33
2019-03-12T17:02:42.612Z,45.07
2019-03-12T17:05:13.127Z,45.29
2019-03-12T17:07:43.597Z,44.86
2019-03-12T17:10:14.679Z,44.60
2019-03-12T17:12:45.744Z,44.38
2019-03-12T17:15:17.076Z,44.81
2019-03-12T17:17:47.455Z,44.50
2019-03-12T17:20:17.987Z,44.06
2019-03-12T17:22:48.747Z,44.16
2019-03-12T17:25:18.995Z,44.77
2019-03-12T17:27:51.816Z,44.15
2019-03-12T17:30:22.407Z,44.41
2019-03-12T17:32:53.468Z,44.38
2019-03-12T17:35:25.688Z,43.98
2019-03-12T17:37:56.001Z,44.39
2019-03-12T17:40:25.423Z,44.85
2019-03-12T17:42:55.673Z,45.08
2019-03-12T17:45:25.949Z,45.22
2019-03-12T17:47:56.580Z,45.70
2019-03-12T17:50:27.039Z,45.70
2019-03-12T17:52:57.439Z,45.55
2019-03-12T17:55:28.699Z,45.51
2019-03-12T17:57:59.181Z,45.28
2019-03-12T18:00:30.397Z,45.17
2019-03-12T18:05:42.546Z,45.38
2019-03-12T18:08:12.889Z,45.21
2019-03-12T18:10:43.084Z,45.02
2019-03-12T18:13:15.233Z,45.26
2019-03-12T18:15:45.683Z,44.68
2019-03-12T18:18:17.263Z,44.20
2019-03-12T18:20:47.453Z,44.58
2019-03-12T18:23:17.950Z,43.80
2019-03-12T18:25:48.336Z,43.80
2019-03-12T18:28:19.933Z,44.50
2019-03-12T18:30:51.804Z,45.35
2019-03-12T18:33:25.468Z,44.70
2019-03-12T18:35:55.703Z,44.70
2019-03-12T18:38:25.991Z,44.76
2019-03-12T18:40:56.522Z,44.38
2019-03-12T18:43:27.296Z,44.67
2019-03-12T18:45:57.956Z,44.67
2019-03-12T18:48:28.316Z,44.02
2019-03-12T18:50:58.450Z,43.79
2019-03-12T18:53:28.679Z,43.10
2019-03-12T18:56:17.892Z,43.33
2019-03-12T18:58:48.161Z,43.33
2019-03-12T19:01:18.682Z,43.20
2019-03-12T19:04:20.090Z,43.29
2019-03-12T19:07:01.637Z,43.80
2019-03-12T19:09:42.557Z,44.35
2019-03-12T19:12:23.583Z,44.42
2019-03-12T19:15:04.811Z,44.42
2019-03-12T19:17:46.587Z,44.45
2019-03-12T19:20:47.552Z,44.89
2019-03-12T19:23:29.876Z,45.22
2019-03-12T19:26:11.583Z,45.22
2019-03-12T19:29:00.644Z,45.25
2019-03-12T19:32:08.473Z,45.26
2019-03-12T19:35:17.613Z,46.11
2019-03-12T19:38:06.750Z,46.11
2019-03-12T19:43:58.486Z,45.27
2019-03-12T19:46:58.651Z,44.74
2019-03-12T19:49:39.714Z,44.19
2019-03-12T19:55:49.803Z,43.43
2019-03-12T20:02:16.086Z,41.85
2019-03-12T20:05:10.407Z,41.85
2019-03-12T20:07:52.133Z,42.02
2019-03-12T20:11:00.043Z,41.68
2019-03-12T20:14:07.793Z,41.13
2019-03-12T20:17:16.832Z,40.42
2019-03-12T20:20:25.544Z,40.08
2019-03-12T20:23:33.704Z,39.82
2019-03-12T20:26:42.049Z,39.83
2019-03-12T20:29:50.381Z,40.35
2019-03-12T20:32:58.262Z,39.43
2019-03-12T20:35:39.073Z,38.44
2019-03-12T20:38:47.853Z,38.56
2019-03-12T20:41:58.004Z,37.82
2019-03-12T20:45:07.677Z,37.58
2019-03-12T20:48:19.801Z,37.47
2019-03-12T20:51:03.716Z,37.46
2019-03-12T20:54:30.236Z,37.48
2019-03-12T20:57:38.334Z,37.73
2019-03-12T21:00:20.033Z,37.74
2019-03-12T21:03:03.335Z,37.90
2019-03-12T21:06:11.319Z,38.32
2019-03-12T21:09:19.747Z,38.35
2019-03-12T21:12:45.733Z,38.24
2019-03-12T21:15:56.844Z,38.28
2019-03-12T21:19:05.065Z,38.87
2019-03-12T21:21:48.042Z,38.91
2019-03-12T21:24:33.217Z,38.99
2019-03-12T21:27:15.131Z,38.89
2019-03-12T21:29:56.753Z,39.04
2019-03-12T21:33:15.282Z,38.82
2019-03-12T21:38:52.611Z,39.33
2019-03-12T21:41:34.662Z,39.58
2019-03-12T21:44:16.623Z,39.49
2019-03-12T21:46:47.243Z,39.30
2019-03-12T21:49:19.391Z,39.44
2019-03-12T21:51:51.297Z,39.67
2019-03-12T21:54:24.768Z,39.73
2019-03-12T21:56:58.440Z,39.76
2019-03-12T21:59:29.598Z,39.63
2019-03-12T22:02:01.036Z,39.57
2019-03-12T22:04:31.289Z,39.67
2019-03-12T22:07:03.566Z,39.78
2019-03-12T22:09:35.658Z,39.90
2019-03-12T22:12:06.595Z,39.85
2019-03-12T22:14:37.409Z,39.86
2019-03-12T22:17:11.653Z,40.58
2019-03-12T22:19:42.025Z,40.63
2019-03-12T22:22:34.415Z,41.06
2019-03-12T22:25:10.385Z,41.12
2019-03-12T22:27:41.771Z,41.07
2019-03-12T22:30:16.119Z,40.57
2019-03-12T22:32:46.897Z,40.72
2019-03-12T22:35:17.867Z,40.20
2019-03-12T22:37:48.952Z,39.89
2019-03-12T22:40:20.201Z,40.63
2019-03-12T22:42:50.724Z,41.32
2019-03-12T22:45:22.599Z,41.89
2019-03-12T22:47:54.504Z,42.14
2019-03-12T22:50:26.511Z,41.81
2019-03-12T22:53:00.451Z,42.76
2019-03-12T22:55:32.351Z,41.88
2019-03-12T22:58:05.131Z,41.66
2019-03-12T23:00:40.077Z,41.37
2019-03-12T23:03:11.737Z,41.62
2019-03-12T23:05:42.097Z,43.13
2019-03-12T23:08:12.323Z,43.39
2019-03-12T23:10:42.945Z,44.45
2019-03-12T23:13:13.171Z,44.68
2019-03-12T23:15:43.529Z,45.32
2019-03-12T23:18:14.091Z,45.70
2019-03-12T23:20:45.011Z,45.89
2019-03-12T23:23:15.274Z,46.55
2019-03-12T23:25:46.022Z,46.53
2019-03-12T23:28:17.781Z,46.95
2019-03-12T23:30:51.733Z,49.26
2019-03-12T23:33:22.415Z,50.67
2019-03-12T23:35:52.806Z,51.41
2019-03-12T23:38:22.890Z,51.41
2019-03-12T23:40:53.445Z,51.86
2019-03-12T23:43:23.616Z,51.62
2019-03-12T23:45:54.022Z,52.69
2019-03-12T23:48:26.435Z,52.69
2019-03-12T23:50:57.376Z,53.63
2019-03-12T23:53:27.739Z,53.63
2019-03-12T23:55:58.246Z,53.52
2019-03-12T23:58:32.640Z,53.74
